createdAt,value
2018-07-02T00:00:01.825Z,16.41
2018-07-02T00:01:01.488Z,16.37
2018-07-02T00:02:01.829Z,16.44
2018-07-02T00:03:01.782Z,16.37
2018-07-02T00:04:01.462Z,16.33
2018-07-02T00:05:01.443Z,16.26
2018-07-02T00:06:01.450Z,16.35
2018-07-02T00:07:01.124Z,16.3
2018-07-02T00:08:01.417Z,16.3
2018-07-02T00:09:01.103Z,16.25
2018-07-02T00:10:01.702Z,16.27
2018-07-02T00:11:01.075Z,16.26
2018-07-02T00:12:01.068Z,16.26
2018-07-02T00:13:01.049Z,16.22
2018-07-02T00:14:01.624Z,16.18
2018-07-02T00:15:01.623Z,16.22
2018-07-02T00:16:01.021Z,16.18
2018-07-02T00:17:01.299Z,16.14
2018-07-02T00:18:00.993Z,16.06
2018-07-02T00:19:01.299Z,16.12
2018-07-02T00:20:00.976Z,16.09
2018-07-02T00:21:01.244Z,16.04
2018-07-02T00:22:00.954Z,15.96
2018-07-02T00:23:01.243Z,15.96
2018-07-02T00:24:01.547Z,15.94
2018-07-02T00:25:01.507Z,15.93
2018-07-02T00:26:01.877Z,15.97
2018-07-02T00:27:01.170Z,15.94
2018-07-02T00:28:01.163Z,15.93
2018-07-02T00:29:00.862Z,15.88
2018-07-02T00:30:01.722Z,15.89
2018-07-02T00:31:01.453Z,15.85
2018-07-02T00:32:01.457Z,15.82
2018-07-02T00:33:01.420Z,15.85
2018-07-02T00:34:00.805Z,15.79
2018-07-02T00:35:00.785Z,15.79
2018-07-02T00:36:01.392Z,15.76
2018-07-02T00:37:00.766Z,15.79
2018-07-02T00:38:01.117Z,15.84
2018-07-02T00:39:01.064Z,15.92
2018-07-02T00:40:01.025Z,15.79
2018-07-02T00:41:01.059Z,15.79
2018-07-02T00:42:00.994Z,15.78
2018-07-02T00:43:01.078Z,15.76
2018-07-02T00:44:01.021Z,15.79
2018-07-02T00:45:00.664Z,15.85
2018-07-02T00:46:00.935Z,15.82
2018-07-02T00:47:01.771Z,15.89
2018-07-02T00:48:01.205Z,15.75
2018-07-02T00:49:00.614Z,15.72
2018-07-02T00:50:01.222Z,15.7
2018-07-02T00:51:01.186Z,15.68
2018-07-02T00:52:02.230Z,15.67
2018-07-02T00:53:00.879Z,15.68
2018-07-02T00:54:00.837Z,15.63
2018-07-02T00:55:00.855Z,15.57
2018-07-02T00:56:00.839Z,15.67
2018-07-02T00:57:01.088Z,15.52
2018-07-02T00:58:01.079Z,15.6
2018-07-02T00:59:01.141Z,15.54
2018-07-02T01:00:01.078Z,15.45
2018-07-02T01:01:01.041Z,15.51
2018-07-02T01:02:00.748Z,15.51
2018-07-02T01:03:01.045Z,15.54
2018-07-02T01:04:01.041Z,15.57
2018-07-02T01:05:00.734Z,15.49
2018-07-02T01:06:02.020Z,15.48
2018-07-02T01:07:00.673Z,15.43
2018-07-02T01:08:00.707Z,15.33
2018-07-02T01:09:01.670Z,15.46
2018-07-02T01:10:00.648Z,15.41
2018-07-02T01:11:00.346Z,15.36
2018-07-02T01:12:00.935Z,15.28
2018-07-02T01:13:00.594Z,15.33
2018-07-02T01:14:00.943Z,15.31
2018-07-02T01:15:00.941Z,15.28
2018-07-02T01:16:00.285Z,15.23
2018-07-02T01:17:00.276Z,15.26
2018-07-02T01:18:00.852Z,15.28
2018-07-02T01:19:01.159Z,15.26
2018-07-02T01:20:00.830Z,15.24
2018-07-02T01:21:00.511Z,15.26
2018-07-02T01:22:00.818Z,15.17
2018-07-02T01:23:00.762Z,15.24
2018-07-02T01:24:00.179Z,15.17
2018-07-02T01:25:00.925Z,15.24
2018-07-02T01:26:00.774Z,15.2
2018-07-02T01:27:00.742Z,15.19
2018-07-02T01:28:00.433Z,15.2
2018-07-02T01:29:00.799Z,15.15
2018-07-02T01:30:00.685Z,15.21
2018-07-02T01:31:01.749Z,15.17
2018-07-02T01:32:00.394Z,15.21
2018-07-02T01:33:00.362Z,15.23
2018-07-02T01:34:00.401Z,15.26
2018-07-02T01:35:00.336Z,15.23
2018-07-02T01:36:00.034Z,15.26
2018-07-02T01:37:00.648Z,15.23
2018-07-02T01:38:00.841Z,15.17
2018-07-02T01:39:00.600Z,15.2
2018-07-02T01:40:00.552Z,15.13
2018-07-02T01:41:00.708Z,15.21
2018-07-02T01:42:00.247Z,15.19
2018-07-02T01:42:59.938Z,15.17
2018-07-02T01:44:00.224Z,15.26
2018-07-02T01:45:00.531Z,15.2
2018-07-02T01:46:00.246Z,15.27
2018-07-02T01:47:00.718Z,15.24
2018-07-02T01:47:59.874Z,15.24
2018-07-02T01:49:00.439Z,15.27
2018-07-02T01:50:01.627Z,15.24
2018-07-02T01:50:59.832Z,15.3
2018-07-02T01:52:00.466Z,15.28
2018-07-02T01:53:00.576Z,15.27
2018-07-02T01:54:00.381Z,15.15
2018-07-02T01:54:59.785Z,15.26
2018-07-02T01:56:00.365Z,15.24
2018-07-02T01:57:01.362Z,15.23
2018-07-02T01:57:59.748Z,15.13
2018-07-02T01:59:00.288Z,15.21
2018-07-02T02:00:00.281Z,15.13
2018-07-02T02:01:01.392Z,15.15
2018-07-02T02:01:59.968Z,14.99
2018-07-02T02:02:59.692Z,15.03
2018-07-02T02:03:59.954Z,14.94
2018-07-02T02:05:00.235Z,14.95
2018-07-02T02:05:59.650Z,14.99
2018-07-02T02:06:59.904Z,14.8
2018-07-02T02:07:59.900Z,14.83
2018-07-02T02:09:00.923Z,14.9
2018-07-02T02:09:59.882Z,14.83
2018-07-02T02:10:59.866Z,14.78
2018-07-02T02:11:59.569Z,14.8
2018-07-02T02:12:59.558Z,14.75
2018-07-02T02:13:59.544Z,14.65
2018-07-02T02:14:59.528Z,14.67
2018-07-02T02:15:59.801Z,14.68
2018-07-02T02:17:00.357Z,14.68
2018-07-02T02:17:59.794Z,14.57
2018-07-02T02:18:59.763Z,14.53
2018-07-02T02:19:59.754Z,14.6
2018-07-02T02:21:00.888Z,14.52
2018-07-02T02:21:59.721Z,14.53
2018-07-02T02:23:00.084Z,14.52
2018-07-02T02:23:59.697Z,14.56
2018-07-02T02:24:59.401Z,14.5
2018-07-02T02:26:00.932Z,14.5
2018-07-02T02:26:59.934Z,14.5
2018-07-02T02:27:59.946Z,14.54
2018-07-02T02:28:59.663Z,14.43
2018-07-02T02:29:59.338Z,14.54
2018-07-02T02:30:59.615Z,14.54
2018-07-02T02:31:59.603Z,14.52
2018-07-02T02:32:59.566Z,14.52
2018-07-02T02:34:00.828Z,14.53
2018-07-02T02:34:59.629Z,14.46
2018-07-02T02:35:59.541Z,14.46
2018-07-02T02:36:59.543Z,14.44
2018-07-02T02:38:00.805Z,14.44
2018-07-02T02:38:59.224Z,14.39
2018-07-02T02:39:59.208Z,14.39
2018-07-02T02:40:59.194Z,14.37
2018-07-02T02:42:00.668Z,14.27
2018-07-02T02:42:59.178Z,14.29
2018-07-02T02:43:59.441Z,14.21
2018-07-02T02:44:59.427Z,14.25
2018-07-02T02:45:59.880Z,14.29
2018-07-02T02:46:59.686Z,14.25
2018-07-02T02:47:59.675Z,14.27
2018-07-02T02:48:59.650Z,14.28
2018-07-02T02:49:59.793Z,14.21
2018-07-02T02:50:59.336Z,14.17
2018-07-02T02:51:59.602Z,14.27
2018-07-02T02:52:59.034Z,14.25
2018-07-02T02:54:00.684Z,14.21
2018-07-02T02:54:59.568Z,14.27
2018-07-02T02:55:59.294Z,14.28
2018-07-02T02:56:59.534Z,14.2
2018-07-02T02:57:58.964Z,14.28
2018-07-02T02:58:59.527Z,14.25
2018-07-02T02:59:59.498Z,14.31
2018-07-02T03:00:59.486Z,14.25
2018-07-02T03:01:59.463Z,14.17
2018-07-02T03:02:58.898Z,14.29
2018-07-02T03:03:59.449Z,14.21
2018-07-02T03:04:59.173Z,14.21
2018-07-02T03:05:59.132Z,14.1
2018-07-02T03:06:59.722Z,14.07
2018-07-02T03:07:58.834Z,14.07
2018-07-02T03:08:59.116Z,14.12
2018-07-02T03:09:59.407Z,13.99
2018-07-02T03:10:58.793Z,14.04
2018-07-02T03:11:59.057Z,14.06
2018-07-02T03:12:59.339Z,14.12
2018-07-02T03:13:59.029Z,14.09
2018-07-02T03:14:59.314Z,14.09
2018-07-02T03:15:59.873Z,14.16
2018-07-02T03:16:59.317Z,14.25
2018-07-02T03:17:58.999Z,14.28
2018-07-02T03:18:59.243Z,14.24
2018-07-02T03:19:59.775Z,14.2
2018-07-02T03:20:59.261Z,14.21
2018-07-02T03:21:59.210Z,14.19
2018-07-02T03:22:58.920Z,14.17
2018-07-02T03:23:59.364Z,14.17
2018-07-02T03:24:58.605Z,14.2
2018-07-02T03:25:58.880Z,14.13
2018-07-02T03:26:58.575Z,14.06
2018-07-02T03:27:59.383Z,14.06
2018-07-02T03:28:58.843Z,14.07
2018-07-02T03:29:59.123Z,13.92
2018-07-02T03:30:58.554Z,13.94
2018-07-02T03:31:59.885Z,13.96
2018-07-02T03:32:58.498Z,13.96
2018-07-02T03:33:58.763Z,13.95
2018-07-02T03:34:58.750Z,13.95
2018-07-02T03:35:58.463Z,13.94
2018-07-02T03:36:58.714Z,14.06
2018-07-02T03:37:59.190Z,14.01
2018-07-02T03:38:58.991Z,14.1
2018-07-02T03:39:58.917Z,14.1
2018-07-02T03:40:58.962Z,14.12
2018-07-02T03:41:58.368Z,14.12
2018-07-02T03:42:58.924Z,14.09
2018-07-02T03:43:59.902Z,14.07
2018-07-02T03:44:58.627Z,14.06
2018-07-02T03:45:58.867Z,14.1
2018-07-02T03:46:58.600Z,14.09
2018-07-02T03:47:58.308Z,14.1
2018-07-02T03:48:58.274Z,14.04
2018-07-02T03:49:58.273Z,13.98
2018-07-02T03:50:58.541Z,13.96
2018-07-02T03:51:59.521Z,13.96
2018-07-02T03:52:58.498Z,13.88
2018-07-02T03:53:58.511Z,13.89
2018-07-02T03:54:58.772Z,13.88
2018-07-02T03:55:58.530Z,13.77
2018-07-02T03:56:58.167Z,13.88
2018-07-02T03:57:58.439Z,13.77
2018-07-02T03:58:58.698Z,13.8
2018-07-02T03:59:58.687Z,13.77
2018-07-02T04:00:58.447Z,13.83
2018-07-02T04:01:58.399Z,13.88
2018-07-02T04:02:58.086Z,13.8
2018-07-02T04:03:58.670Z,13.74
2018-07-02T04:04:58.398Z,13.79
2018-07-02T04:05:58.598Z,13.87
2018-07-02T04:06:58.857Z,13.77
2018-07-02T04:07:58.588Z,13.77
2018-07-02T04:08:58.311Z,13.81
2018-07-02T04:09:58.275Z,13.79
2018-07-02T04:10:58.272Z,13.79
2018-07-02T04:11:58.905Z,13.88
2018-07-02T04:12:58.330Z,13.81
2018-07-02T04:13:58.222Z,13.87
2018-07-02T04:14:58.635Z,13.88
2018-07-02T04:15:58.795Z,13.81
2018-07-02T04:16:59.395Z,13.8
2018-07-02T04:17:58.154Z,13.84
2018-07-02T04:18:58.658Z,13.79
2018-07-02T04:19:58.151Z,13.77
2018-07-02T04:20:58.432Z,13.83
2018-07-02T04:21:58.485Z,13.79
2018-07-02T04:22:57.814Z,13.92
2018-07-02T04:23:58.380Z,13.94
2018-07-02T04:24:57.786Z,13.89
2018-07-02T04:25:58.636Z,14.02
2018-07-02T04:26:58.575Z,14.06
2018-07-02T04:27:58.044Z,14.12
2018-07-02T04:28:58.009Z,14.19
2018-07-02T04:29:58.964Z,14.14
2018-07-02T04:30:57.713Z,14.21
2018-07-02T04:31:57.997Z,14.24
2018-07-02T04:32:58.020Z,14.28
2018-07-02T04:33:58.362Z,14.39
2018-07-02T04:34:57.654Z,14.37
2018-07-02T04:35:57.930Z,14.43
2018-07-02T04:36:57.898Z,14.44
2018-07-02T04:37:59.189Z,14.39
2018-07-02T04:38:58.212Z,14.43
2018-07-02T04:39:58.141Z,14.44
2018-07-02T04:40:59.274Z,14.44
2018-07-02T04:41:58.516Z,14.49
2018-07-02T04:42:58.249Z,14.44
2018-07-02T04:43:58.330Z,14.46
2018-07-02T04:44:59.116Z,14.44
2018-07-02T04:45:57.498Z,14.5
2018-07-02T04:46:57.489Z,14.46
2018-07-02T04:47:57.483Z,14.43
2018-07-02T04:48:58.983Z,14.5
2018-07-02T04:49:58.167Z,14.52
2018-07-02T04:50:58.344Z,14.49
2018-07-02T04:51:58.874Z,14.52
2018-07-02T04:52:58.022Z,14.56
2018-07-02T04:53:59.061Z,14.6
2018-07-02T04:54:58.229Z,14.65
2018-07-02T04:55:58.177Z,14.68
2018-07-02T04:56:58.226Z,14.78
2018-07-02T04:57:57.617Z,14.65
2018-07-02T04:58:59.159Z,14.75
2018-07-02T04:59:57.651Z,14.8
2018-07-02T05:00:57.571Z,14.81
2018-07-02T05:01:57.290Z,14.91
2018-07-02T05:02:57.799Z,14.99
2018-07-02T05:03:57.536Z,14.95
2018-07-02T05:04:57.774Z,14.95
2018-07-02T05:05:57.503Z,14.99
2018-07-02T05:06:57.671Z,14.95
2018-07-02T05:07:57.740Z,15.06
2018-07-02T05:08:57.462Z,15.06
2018-07-02T05:09:57.711Z,15.17
2018-07-02T05:10:57.439Z,15.12
2018-07-02T05:11:57.421Z,15.15
2018-07-02T05:12:57.161Z,15.13
2018-07-02T05:13:57.130Z,15.21
2018-07-02T05:14:57.395Z,15.27
2018-07-02T05:15:57.103Z,15.31
2018-07-02T05:16:57.779Z,15.23
2018-07-02T05:17:57.602Z,15.31
2018-07-02T05:18:57.069Z,15.31
2018-07-02T05:19:57.572Z,15.38
2018-07-02T05:20:57.038Z,15.39
2018-07-02T05:21:57.548Z,15.41
2018-07-02T05:22:57.276Z,15.43
2018-07-02T05:23:57.000Z,15.43
2018-07-02T05:24:57.252Z,15.54
2018-07-02T05:25:57.246Z,15.54
2018-07-02T05:26:56.959Z,15.52
2018-07-02T05:27:57.216Z,15.7
2018-07-02T05:28:57.199Z,15.59
2018-07-02T05:29:57.186Z,15.64
2018-07-02T05:30:57.052Z,15.76
2018-07-02T05:31:57.165Z,15.78
2018-07-02T05:32:57.428Z,15.72
2018-07-02T05:33:57.269Z,15.89
2018-07-02T05:34:57.234Z,15.88
2018-07-02T05:35:57.109Z,16
2018-07-02T05:36:56.840Z,16.01
2018-07-02T05:37:57.608Z,16.09
2018-07-02T05:38:57.172Z,16.12
2018-07-02T05:39:57.054Z,16.18
2018-07-02T05:40:56.787Z,16.25
2018-07-02T05:41:57.036Z,16.35
2018-07-02T05:42:57.022Z,16.34
2018-07-02T05:43:57.017Z,16.38
2018-07-02T05:44:56.997Z,16.42
2018-07-02T05:45:56.985Z,16.42
2018-07-02T05:46:56.973Z,16.49
2018-07-02T05:47:56.695Z,16.52
2018-07-02T05:48:56.951Z,16.56
2018-07-02T05:49:57.206Z,16.59
2018-07-02T05:50:56.922Z,16.56
2018-07-02T05:51:56.918Z,16.73
2018-07-02T05:52:57.163Z,16.71
2018-07-02T05:53:56.885Z,16.77
2018-07-02T05:54:56.980Z,16.75
2018-07-02T05:55:56.601Z,16.78
2018-07-02T05:56:56.590Z,16.9
2018-07-02T05:57:56.581Z,16.85
2018-07-02T05:58:56.826Z,16.96
2018-07-02T05:59:56.548Z,16.92
2018-07-02T06:00:56.800Z,17.04
2018-07-02T06:01:56.522Z,17.1
2018-07-02T06:02:56.521Z,17.17
2018-07-02T06:03:56.766Z,17.18
2018-07-02T06:04:57.024Z,17.2
2018-07-02T06:05:56.739Z,17.3
2018-07-02T06:06:56.727Z,17.38
2018-07-02T06:07:56.865Z,17.38
2018-07-02T06:08:56.702Z,17.36
2018-07-02T06:09:56.694Z,17.44
2018-07-02T06:10:56.419Z,17.5
2018-07-02T06:11:56.668Z,17.44
2018-07-02T06:12:56.660Z,17.43
2018-07-02T06:13:56.382Z,17.57
2018-07-02T06:14:56.631Z,17.63
2018-07-02T06:15:56.890Z,17.62
2018-07-02T06:16:56.629Z,17.66
2018-07-02T06:17:56.867Z,17.74
2018-07-02T06:18:56.585Z,17.92
2018-07-02T06:19:56.587Z,18
2018-07-02T06:20:56.588Z,18.15
2018-07-02T06:21:56.826Z,18.39
2018-07-02T06:22:56.541Z,18.79
2018-07-02T06:23:56.797Z,19.39
2018-07-02T06:24:56.683Z,20.23
2018-07-02T06:25:56.523Z,20.77
2018-07-02T06:26:56.502Z,21.14
2018-07-02T06:27:56.228Z,21.16
2018-07-02T06:28:56.491Z,20.93
2018-07-02T06:29:56.482Z,20.76
2018-07-02T06:30:56.462Z,20.49
2018-07-02T06:31:56.241Z,20.31
2018-07-02T06:32:56.435Z,20.13
2018-07-02T06:33:56.428Z,19.9
2018-07-02T06:34:56.693Z,19.86
2018-07-02T06:35:56.412Z,19.66
2018-07-02T06:36:56.669Z,19.51
2018-07-02T06:37:56.384Z,19.54
2018-07-02T06:38:56.639Z,19.42
2018-07-02T06:39:56.366Z,19.4
2018-07-02T06:40:56.614Z,19.36
2018-07-02T06:41:56.672Z,19.42
2018-07-02T06:42:56.602Z,19.38
2018-07-02T06:43:56.322Z,19.31
2018-07-02T06:44:56.330Z,19.35
2018-07-02T06:45:56.304Z,19.32
2018-07-02T06:46:56.296Z,19.33
2018-07-02T06:47:56.288Z,19.4
2018-07-02T06:48:56.278Z,19.36
2018-07-02T06:49:56.532Z,19.36
2018-07-02T06:50:55.988Z,19.39
2018-07-02T06:51:56.244Z,19.6
2018-07-02T06:52:56.501Z,19.9
2018-07-02T06:53:56.493Z,20.74
2018-07-02T06:54:56.217Z,21.3
2018-07-02T06:55:56.480Z,21.54
2018-07-02T06:56:55.939Z,21.46
2018-07-02T06:57:56.455Z,21.39
2018-07-02T06:58:56.187Z,21.74
2018-07-02T06:59:56.180Z,22.47
2018-07-02T07:00:56.432Z,23.71
2018-07-02T07:01:56.219Z,24.85
2018-07-02T07:02:56.415Z,25.9
2018-07-02T07:03:56.400Z,26.52
2018-07-02T07:04:56.392Z,27.28
2018-07-02T07:05:56.129Z,28.01
2018-07-02T07:06:56.117Z,28.72
2018-07-02T07:07:56.113Z,29.1
2018-07-02T07:08:55.830Z,29.35
2018-07-02T07:09:56.104Z,29.66
2018-07-02T07:10:55.828Z,29.97
2018-07-02T07:11:56.085Z,30.34
2018-07-02T07:12:56.069Z,30.76
2018-07-02T07:13:56.060Z,30.98
2018-07-02T07:14:56.063Z,31.15
2018-07-02T07:15:56.356Z,31.13
2018-07-02T07:16:56.061Z,31.11
2018-07-02T07:17:56.047Z,31.21
2018-07-02T07:18:56.280Z,31.46
2018-07-02T07:19:56.023Z,31.7
2018-07-02T07:20:56.267Z,31.75
2018-07-02T07:21:56.263Z,31.76
2018-07-02T07:22:56.268Z,31.85
2018-07-02T07:23:56.254Z,31.8
2018-07-02T07:24:56.252Z,31.75
2018-07-02T07:25:56.062Z,31.85
2018-07-02T07:26:55.706Z,31.67
2018-07-02T07:27:55.725Z,31.88
2018-07-02T07:28:55.700Z,31.92
2018-07-02T07:29:56.253Z,32.24
2018-07-02T07:30:55.952Z,32.51
2018-07-02T07:31:55.952Z,32.73
2018-07-02T07:32:55.959Z,32.91
2018-07-02T07:33:55.950Z,33.19
2018-07-02T07:34:56.260Z,33.37
2018-07-02T07:35:55.948Z,33.52
2018-07-02T07:36:55.941Z,33.31
2018-07-02T07:37:56.345Z,33.33
2018-07-02T07:38:55.931Z,33.31
2018-07-02T07:39:55.936Z,33.49
2018-07-02T07:40:55.939Z,33.8
2018-07-02T07:41:55.928Z,34.01
2018-07-02T07:42:56.189Z,34.19
2018-07-02T07:43:56.192Z,34.23
2018-07-02T07:44:56.055Z,34.16
2018-07-02T07:45:55.924Z,34.19
2018-07-02T07:46:56.204Z,34.26
2018-07-02T07:47:56.206Z,34.41
2018-07-02T07:48:55.926Z,34.6
2018-07-02T07:49:56.194Z,34.31
2018-07-02T07:50:56.198Z,34.26
2018-07-02T07:51:55.930Z,34.41
2018-07-02T07:52:56.187Z,34.54
2018-07-02T07:53:55.932Z,34.41
2018-07-02T07:54:55.939Z,34.61
2018-07-02T07:55:56.197Z,34.76
2018-07-02T07:56:56.191Z,34.74
2018-07-02T07:57:55.664Z,34.56
2018-07-02T07:58:55.952Z,34.39
2018-07-02T07:59:56.253Z,34.44
2018-07-02T08:00:56.209Z,34.74
2018-07-02T08:01:56.201Z,34.86
2018-07-02T08:02:55.940Z,35.28
2018-07-02T08:03:55.675Z,35.35
2018-07-02T08:04:55.944Z,35.62
2018-07-02T08:05:56.223Z,35.88
2018-07-02T08:06:56.211Z,36.07
2018-07-02T08:07:55.993Z,35.97
2018-07-02T08:08:56.215Z,35.1
2018-07-02T08:09:56.215Z,34.48
2018-07-02T08:10:55.960Z,34.72
2018-07-02T08:11:56.220Z,35.11
2018-07-02T08:12:55.956Z,35.36
2018-07-02T08:13:55.697Z,35.6
2018-07-02T08:14:56.223Z,35.55
2018-07-02T08:15:56.235Z,35.32
2018-07-02T08:16:56.234Z,35.37
2018-07-02T08:17:56.238Z,35.36
2018-07-02T08:18:56.104Z,35.29
2018-07-02T08:19:55.712Z,35.44
2018-07-02T08:20:56.241Z,35.3
2018-07-02T08:21:55.983Z,35.21
2018-07-02T08:22:55.988Z,35.25
2018-07-02T08:23:56.261Z,35.28
2018-07-02T08:24:56.264Z,35.52
2018-07-02T08:25:55.997Z,35.72
2018-07-02T08:26:56.009Z,35.45
2018-07-02T08:27:56.026Z,35.35
2018-07-02T08:28:56.011Z,35.13
2018-07-02T08:29:56.280Z,34.94
2018-07-02T08:30:56.279Z,34.88
2018-07-02T08:31:56.283Z,34.56
2018-07-02T08:32:56.414Z,33.86
2018-07-02T08:33:56.056Z,33.46
2018-07-02T08:34:56.035Z,32.36
2018-07-02T08:35:56.062Z,31.88
2018-07-02T08:36:56.038Z,31.58
2018-07-02T08:37:56.333Z,31.24
2018-07-02T08:38:56.056Z,30.74
2018-07-02T08:39:56.066Z,30.43
2018-07-02T08:40:56.315Z,30.16
2018-07-02T08:41:55.789Z,30.21
2018-07-02T08:42:55.790Z,30.23
2018-07-02T08:43:56.317Z,30.19
2018-07-02T08:44:56.316Z,29.74
2018-07-02T08:45:56.058Z,29.6
2018-07-02T08:46:55.797Z,29.43
2018-07-02T08:47:55.800Z,29.19
2018-07-02T08:48:56.059Z,28.95
2018-07-02T08:49:56.324Z,28.6
2018-07-02T08:50:56.059Z,28.31
2018-07-02T08:51:56.060Z,28.21
2018-07-02T08:52:56.327Z,27.92
2018-07-02T08:53:55.796Z,27.77
2018-07-02T08:54:55.953Z,27.47
2018-07-02T08:55:56.066Z,27.17
2018-07-02T08:56:56.053Z,26.98
2018-07-02T08:57:56.314Z,26.79
2018-07-02T08:58:56.048Z,26.68
2018-07-02T08:59:56.069Z,26.58
2018-07-02T09:00:56.322Z,26.58
2018-07-02T09:01:56.063Z,26.57
2018-07-02T09:02:55.778Z,26.49
2018-07-02T09:03:55.775Z,26.87
2018-07-02T09:04:56.307Z,27.47
2018-07-02T09:05:56.298Z,28.06
2018-07-02T09:06:55.784Z,27.88
2018-07-02T09:07:55.772Z,28.1
2018-07-02T09:08:56.040Z,28.43
2018-07-02T09:09:56.045Z,28.9
2018-07-02T09:10:55.771Z,29.66
2018-07-02T09:11:56.067Z,30.24
2018-07-02T09:12:55.782Z,30.4
2018-07-02T09:13:55.777Z,30.57
2018-07-02T09:14:56.041Z,30.36
2018-07-02T09:15:56.304Z,30.83
2018-07-02T09:16:56.046Z,30.96
2018-07-02T09:17:56.323Z,31.02
2018-07-02T09:18:56.316Z,31.02
2018-07-02T09:19:56.318Z,30.69
2018-07-02T09:20:56.049Z,30.31
2018-07-02T09:21:55.789Z,30.14
2018-07-02T09:22:56.318Z,29.6
2018-07-02T09:23:56.160Z,28.78
2018-07-02T09:24:56.326Z,28.53
2018-07-02T09:25:56.100Z,28.4
2018-07-02T09:26:56.338Z,28.23
2018-07-02T09:27:56.074Z,27.91
2018-07-02T09:28:56.068Z,27.82
2018-07-02T09:29:56.440Z,27.71
2018-07-02T09:30:56.073Z,27.7
2018-07-02T09:31:56.078Z,27.82
2018-07-02T09:32:56.085Z,27.86
2018-07-02T09:33:56.082Z,27.85
2018-07-02T09:34:56.085Z,27.86
2018-07-02T09:35:56.075Z,27.91
2018-07-02T09:36:56.332Z,27.79
2018-07-02T09:37:56.335Z,27.71
2018-07-02T09:38:56.096Z,27.64
2018-07-02T09:39:56.341Z,27.67
2018-07-02T09:40:55.815Z,27.73
2018-07-02T09:41:56.077Z,27.85
2018-07-02T09:42:56.089Z,27.88
2018-07-02T09:43:56.079Z,28.06
2018-07-02T09:44:56.077Z,28.38
2018-07-02T09:45:56.358Z,28.47
2018-07-02T09:46:56.362Z,28.33
2018-07-02T09:47:56.079Z,28.53
2018-07-02T09:48:56.097Z,28.43
2018-07-02T09:49:56.083Z,28.58
2018-07-02T09:50:56.345Z,28.62
2018-07-02T09:51:56.085Z,28.26
2018-07-02T09:52:56.084Z,27.98
2018-07-02T09:53:55.822Z,27.66
2018-07-02T09:54:55.822Z,27.29
2018-07-02T09:55:56.150Z,26.94
2018-07-02T09:56:56.103Z,26.79
2018-07-02T09:57:56.355Z,26.74
2018-07-02T09:58:56.347Z,26.67
2018-07-02T09:59:56.092Z,26.76
2018-07-02T10:00:56.348Z,26.87
2018-07-02T10:01:55.825Z,26.83
2018-07-02T10:02:56.361Z,26.98
2018-07-02T10:03:56.346Z,26.83
2018-07-02T10:04:56.090Z,26.86
2018-07-02T10:05:56.078Z,26.86
2018-07-02T10:06:56.072Z,26.81
2018-07-02T10:07:56.336Z,26.69
2018-07-02T10:08:55.805Z,26.72
2018-07-02T10:09:56.080Z,26.65
2018-07-02T10:10:56.341Z,26.59
2018-07-02T10:11:56.139Z,26.61
2018-07-02T10:12:56.335Z,26.59
2018-07-02T10:13:56.166Z,26.62
2018-07-02T10:14:56.331Z,26.59
2018-07-02T10:15:56.072Z,26.72
2018-07-02T10:16:56.059Z,26.76
2018-07-02T10:17:56.072Z,26.76
2018-07-02T10:18:56.040Z,26.65
2018-07-02T10:19:56.299Z,26.72
2018-07-02T10:20:55.769Z,26.65
2018-07-02T10:21:56.051Z,26.76
2018-07-02T10:22:56.051Z,26.8
2018-07-02T10:23:55.815Z,26.84
2018-07-02T10:24:56.022Z,27.05
2018-07-02T10:25:56.071Z,27.1
2018-07-02T10:26:56.029Z,27.31
2018-07-02T10:27:56.280Z,27.54
2018-07-02T10:28:56.015Z,27.7
2018-07-02T10:29:56.013Z,28.03
2018-07-02T10:30:56.158Z,28.35
2018-07-02T10:31:56.287Z,28.65
2018-07-02T10:32:55.760Z,29.1
2018-07-02T10:33:55.752Z,29.56
2018-07-02T10:34:56.458Z,29.9
2018-07-02T10:35:56.044Z,30.23
2018-07-02T10:36:56.021Z,30.68
2018-07-02T10:37:56.052Z,31.11
2018-07-02T10:38:56.281Z,31.58
2018-07-02T10:39:56.161Z,31.73
2018-07-02T10:40:56.299Z,31.87
2018-07-02T10:41:56.290Z,32.17
2018-07-02T10:42:56.048Z,32.17
2018-07-02T10:43:56.301Z,32.55
2018-07-02T10:44:55.774Z,32.51
2018-07-02T10:45:56.313Z,32.77
2018-07-02T10:46:55.842Z,32.85
2018-07-02T10:47:56.078Z,33.23
2018-07-02T10:48:56.325Z,33.53
2018-07-02T10:49:56.079Z,33.82
2018-07-02T10:50:56.072Z,33.85
2018-07-02T10:51:56.345Z,34.04
2018-07-02T10:52:56.361Z,34.19
2018-07-02T10:53:56.359Z,34.19
2018-07-02T10:54:56.094Z,34.22
2018-07-02T10:55:56.363Z,34.48
2018-07-02T10:56:56.372Z,34.84
2018-07-02T10:57:56.377Z,35.01
2018-07-02T10:58:56.401Z,34.99
2018-07-02T10:59:56.391Z,34.92
2018-07-02T11:00:55.871Z,35.14
2018-07-02T11:01:56.158Z,35.44
2018-07-02T11:02:56.142Z,35.23
2018-07-02T11:03:55.894Z,35.11
2018-07-02T11:04:56.165Z,35.11
2018-07-02T11:05:56.432Z,35.13
2018-07-02T11:06:56.437Z,35.13
2018-07-02T11:07:56.444Z,35.29
2018-07-02T11:08:56.455Z,35.32
2018-07-02T11:09:56.204Z,35.39
2018-07-02T11:10:56.468Z,35.58
2018-07-02T11:11:55.951Z,35.33
2018-07-02T11:12:56.216Z,35.15
2018-07-02T11:13:55.963Z,34.77
2018-07-02T11:14:55.967Z,34.72
2018-07-02T11:15:56.289Z,34.83
2018-07-02T11:16:56.524Z,34.81
2018-07-02T11:17:56.251Z,34.86
2018-07-02T11:18:56.272Z,34.98
2018-07-02T11:19:56.529Z,35.07
2018-07-02T11:20:56.280Z,35.2
2018-07-02T11:21:56.547Z,35.23
2018-07-02T11:22:56.555Z,35.37
2018-07-02T11:23:56.568Z,35.29
2018-07-02T11:24:56.574Z,35.03
2018-07-02T11:25:56.343Z,35.11
2018-07-02T11:26:56.330Z,35.08
2018-07-02T11:27:56.336Z,35.3
2018-07-02T11:28:56.352Z,35.3
2018-07-02T11:29:56.609Z,35.18
2018-07-02T11:30:56.362Z,35.08
2018-07-02T11:31:56.642Z,35.08
2018-07-02T11:32:56.375Z,35.14
2018-07-02T11:33:56.386Z,35.3
2018-07-02T11:34:56.125Z,35.29
2018-07-02T11:35:56.404Z,35.23
2018-07-02T11:36:56.148Z,35.44
2018-07-02T11:37:56.425Z,35.63
2018-07-02T11:38:56.894Z,35.79
2018-07-02T11:39:56.707Z,35.79
2018-07-02T11:40:56.195Z,35.18
2018-07-02T11:41:56.455Z,34.57
2018-07-02T11:42:56.469Z,34.69
2018-07-02T11:43:56.493Z,35.1
2018-07-02T11:44:56.741Z,35.44
2018-07-02T11:45:56.487Z,35.81
2018-07-02T11:46:56.506Z,36.03
2018-07-02T11:47:56.238Z,36.24
2018-07-02T11:48:56.508Z,36.14
2018-07-02T11:49:56.534Z,36.07
2018-07-02T11:50:56.794Z,36.39
2018-07-02T11:51:56.273Z,36.46
2018-07-02T11:52:56.809Z,36.57
2018-07-02T11:53:56.818Z,36.67
2018-07-02T11:54:56.564Z,36.76
2018-07-02T11:55:56.571Z,36.92
2018-07-02T11:56:56.586Z,36.92
2018-07-02T11:57:56.593Z,36.83
2018-07-02T11:58:56.602Z,36.75
2018-07-02T11:59:56.608Z,36.56
2018-07-02T12:00:56.615Z,36.8
2018-07-02T12:01:57.060Z,36.76
2018-07-02T12:02:56.905Z,36.82
2018-07-02T12:03:56.644Z,36.68
2018-07-02T12:04:56.387Z,36.68
2018-07-02T12:05:56.666Z,36.26
2018-07-02T12:06:56.931Z,36.46
2018-07-02T12:07:56.685Z,36.65
2018-07-02T12:08:56.428Z,36.75
2018-07-02T12:09:57.103Z,36.91
2018-07-02T12:10:56.441Z,37.07
2018-07-02T12:11:56.983Z,37.16
2018-07-02T12:12:56.726Z,37.19
2018-07-02T12:13:56.733Z,36.95
2018-07-02T12:14:56.745Z,36.79
2018-07-02T12:15:56.748Z,36.79
2018-07-02T12:16:56.499Z,37.07
2018-07-02T12:17:56.506Z,37.24
2018-07-02T12:18:57.045Z,37.14
2018-07-02T12:19:57.060Z,37.16
2018-07-02T12:20:56.803Z,37.05
2018-07-02T12:21:56.807Z,37.1
2018-07-02T12:22:56.551Z,36.82
2018-07-02T12:23:57.094Z,36.9
2018-07-02T12:24:56.838Z,35.81
2018-07-02T12:25:56.845Z,35.55
2018-07-02T12:26:57.126Z,35.7
2018-07-02T12:27:56.866Z,35.79
2018-07-02T12:28:57.136Z,36.14
2018-07-02T12:29:57.144Z,36.56
2018-07-02T12:30:56.892Z,36.97
2018-07-02T12:31:56.900Z,37.05
2018-07-02T12:32:56.915Z,37.09
2018-07-02T12:33:56.918Z,37.13
2018-07-02T12:34:56.665Z,37.41
2018-07-02T12:35:56.681Z,37.48
2018-07-02T12:36:56.689Z,37.64
2018-07-02T12:37:56.959Z,37.88
2018-07-02T12:38:56.968Z,38.03
2018-07-02T12:39:56.717Z,38.1
2018-07-02T12:40:56.985Z,37.7
2018-07-02T12:41:56.993Z,37.38
2018-07-02T12:42:56.746Z,36.99
2018-07-02T12:43:57.282Z,36.77
2018-07-02T12:44:57.020Z,37.04
2018-07-02T12:45:56.769Z,36.97
2018-07-02T12:46:56.789Z,37.12
2018-07-02T12:47:57.054Z,37.33
2018-07-02T12:48:57.058Z,37.55
2018-07-02T12:49:57.065Z,37.7
2018-07-02T12:50:57.350Z,37.5
2018-07-02T12:51:57.091Z,37.38
2018-07-02T12:52:57.095Z,37.38
2018-07-02T12:53:57.386Z,37.55
2018-07-02T12:54:57.125Z,37.62